Government of Jersey

Home Log in

METAR EGJJ 111150Z 03013KT 360V060 9999 FEW033 08/01 Q1019

METAR EGJB 111150Z 02009KT 360V060 9999 SCT034 07/M01 Q1020

METAR EGJA 111150Z 04011KT 010V070 9999 FEW032 07/M00 Q1020

METAR LFRD 111130Z AUTO 03012KT 360V060 9999 SCT029 BKN041 OVC100 07/03 Q1019 TEMPO 4000 SHRA BKN012TCU SCT015CB

METAR LFRC 111130Z AUTO 03011KT 010V070 9999 BKN029 BKN035 06/M00 Q1019 NOSIG